Time;durP1;ratioP1;P1;durP2;ratioP2;P2;SDS_P1;SDS_P2;PMS_P1;PMS_P2;Temp;Humidity;BMP_temperature;BMP_pressure;BME280_temperature;BME280_humidity;BME280_pressure;Samples;Min_cycle;Max_cycle;Signal;HPM_P1;HPM_P2
2021/03/19 00:01:54;;;;;;;1.35;0.47;;;23.20;27.90;;;;;;5053746;28;20044;-59
2021/03/19 00:04:20;;;;;;;0.40;0.30;;;23.20;27.90;;;;;;5053952;28;20048;-58
2021/03/19 00:06:46;;;;;;;0.93;0.40;;;23.20;27.90;;;;;;5054096;28;20036;-58
2021/03/19 00:09:12;;;;;;;1.13;0.50;;;23.20;27.80;;;;;;5053343;28;20028;-59
2021/03/19 00:11:39;;;;;;;1.08;0.40;;;23.20;27.90;;;;;;5053627;28;20066;-58
2021/03/19 00:14:06;;;;;;;0.47;0.30;;;23.20;27.80;;;;;;5037314;28;20344;-57
2021/03/19 00:16:32;;;;;;;1.23;0.50;;;23.10;27.80;;;;;;5056309;28;20033;-58
2021/03/19 00:18:58;;;;;;;0.90;0.40;;;23.10;27.80;;;;;;5057805;28;20116;-59
2021/03/19 00:21:24;;;;;;;1.40;0.55;;;23.10;27.80;;;;;;5056942;28;20036;-60
2021/03/19 00:23:49;;;;;;;0.73;0.30;;;23.10;27.80;;;;;;5056999;28;20029;-55
2021/03/19 00:26:16;;;;;;;1.13;0.28;;;23.10;27.80;;;;;;5057606;28;20025;-57
2021/03/19 00:28:42;;;;;;;0.50;0.35;;;23.10;27.80;;;;;;5057086;28;20040;-54
2021/03/19 00:31:07;;;;;;;0.35;0.25;;;23.00;27.70;;;;;;5056633;28;20041;-58
2021/03/19 00:33:33;;;;;;;0.77;0.50;;;23.10;27.80;;;;;;5057034;28;20056;-58
2021/03/19 00:35:59;;;;;;;0.90;0.30;;;23.00;27.70;;;;;;5056796;28;20068;-58
2021/03/19 00:38:25;;;;;;;0.43;0.30;;;23.00;27.80;;;;;;5056991;28;20029;-58
2021/03/19 00:40:51;;;;;;;1.02;0.40;;;23.00;27.70;;;;;;5057002;28;20067;-56
2021/03/19 00:43:17;;;;;;;0.45;0.35;;;23.00;28.20;;;;;;5039549;28;20444;-55
2021/03/19 00:45:44;;;;;;;0.65;0.30;;;22.90;27.70;;;;;;5056921;28;20037;-59
2021/03/19 00:48:11;;;;;;;1.52;0.40;;;22.90;27.70;;;;;;5057230;28;20028;-59
2021/03/19 00:50:40;;;;;;;0.57;0.30;;;22.90;27.70;;;;;;5056055;28;20040;-58
2021/03/19 00:53:06;;;;;;;1.08;0.50;;;22.90;27.70;;;;;;5039092;28;20029;-60
2021/03/19 00:55:33;;;;;;;0.98;0.40;;;22.90;27.70;;;;;;5056347;28;20407;-57
2021/03/19 00:57:59;;;;;;;1.10;0.50;;;22.90;27.70;;;;;;5056650;28;20425;-57
2021/03/19 01:00:28;;;;;;;0.35;0.20;;;22.90;27.70;;;;;;5056585;28;20440;-56
2021/03/19 01:02:53;;;;;;;1.23;0.50;;;22.90;27.70;;;;;;5056609;28;20436;-58
2021/03/19 01:05:35;;;;;;;0.20;0.20;;;22.80;27.60;;;;;;5056143;28;20024;-56
2021/03/19 01:08:05;;;;;;;0.38;0.17;;;22.90;27.70;;;;;;5037793;28;20395;-58
2021/03/19 01:10:35;;;;;;;0.35;0.22;;;22.80;27.70;;;;;;5038443;28;20505;-58
2021/03/19 01:13:01;;;;;;;0.30;0.20;;;22.80;27.60;;;;;;5055029;28;20053;-59
2021/03/19 01:15:28;;;;;;;0.52;0.25;;;22.80;27.60;;;;;;5056164;28;20113;-59
2021/03/19 01:17:54;;;;;;;0.60;0.40;;;22.80;27.70;;;;;;5055914;28;20102;-60
2021/03/19 01:20:22;;;;;;;0.95;0.30;;;22.80;27.70;;;;;;5056025;28;20104;-58
2021/03/19 01:22:48;;;;;;;1.02;0.30;;;22.80;27.70;;;;;;5055888;28;20025;-58
2021/03/19 01:25:16;;;;;;;0.50;0.30;;;22.80;27.70;;;;;;5056142;28;20522;-60
2021/03/19 01:27:43;;;;;;;1.00;0.40;;;22.80;27.70;;;;;;5055491;28;20037;-58
2021/03/19 01:30:15;;;;;;;1.05;0.40;;;22.70;27.60;;;;;;5021759;28;20135;-60
2021/03/19 01:32:43;;;;;;;0.40;0.20;;;22.70;27.70;;;;;;5055346;28;20125;-59
2021/03/19 01:35:09;;;;;;;0.65;0.30;;;22.70;27.60;;;;;;5055582;28;20098;-59
2021/03/19 01:37:35;;;;;;;0.98;0.50;;;22.70;27.60;;;;;;5055177;28;20360;-59
2021/03/19 01:40:01;;;;;;;0.60;0.32;;;22.70;27.60;;;;;;5055762;28;20030;-58
2021/03/19 01:42:27;;;;;;;0.50;0.30;;;22.70;27.60;;;;;;5055508;28;20029;-56
2021/03/19 01:45:08;;;;;;;0.90;0.40;;;22.70;27.60;;;;;;5038087;28;20068;-59
2021/03/19 01:48:11;;;;;;;0.70;0.30;;;22.70;27.60;;;;;;5055902;28;20336;-55
2021/03/19 01:51:13;;;;;;;0.35;0.30;;;22.70;27.60;;;;;;5044112;28;20044;-57
2021/03/19 01:54:17;;;;;;;1.25;0.60;;;22.70;27.60;;;;;;5044371;28;20029;-58
2021/03/19 01:57:19;;;;;;;0.85;0.50;;;22.60;27.50;;;;;;5055783;28;20029;-59
2021/03/19 02:00:22;;;;;;;0.30;0.30;;;22.60;27.50;;;;;;5054818;28;20036;-57
2021/03/19 02:03:26;;;;;;;0.80;0.45;;;22.60;27.50;;;;;;5055376;28;20111;-57
2021/03/19 02:06:29;;;;;;;0.57;0.30;;;22.60;27.50;;;;;;5039655;28;20052;-59
2021/03/19 02:09:32;;;;;;;0.95;0.43;;;22.60;27.50;;;;;;5054828;28;20040;-58
2021/03/19 02:12:35;;;;;;;0.63;0.35;;;22.50;27.50;;;;;;5054927;28;20356;-58
2021/03/19 02:15:38;;;;;;;0.55;0.30;;;22.50;27.50;;;;;;5051831;28;20411;-58
2021/03/19 02:18:41;;;;;;;0.50;0.30;;;22.50;27.50;;;;;;5037121;28;20037;-59
2021/03/19 02:21:44;;;;;;;0.93;0.55;;;22.50;27.50;;;;;;5055023;28;20116;-59
2021/03/19 02:24:47;;;;;;;0.77;0.50;;;22.50;27.50;;;;;;5054824;28;20048;-59
2021/03/19 02:27:50;;;;;;;0.50;0.30;;;22.50;27.50;;;;;;5054416;28;20094;-57
2021/03/19 02:30:53;;;;;;;1.38;0.50;;;22.40;27.40;;;;;;5054377;28;20120;-59
2021/03/19 02:33:19;;;;;;;0.98;0.57;;;22.40;27.40;;;;;;5054294;28;20039;-59
2021/03/19 02:35:53;;;;;;;0.50;0.40;;;22.40;27.50;;;;;;5054466;28;20111;-58
2021/03/19 02:38:19;;;;;;;0.65;0.20;;;22.40;27.40;;;;;;5054061;28;20068;-56
2021/03/19 02:40:45;;;;;;;0.57;0.30;;;22.40;27.40;;;;;;5054609;28;20448;-59
2021/03/19 02:43:11;;;;;;;0.63;0.35;;;22.40;27.50;;;;;;5053760;28;20040;-57
2021/03/19 02:45:37;;;;;;;0.63;0.40;;;22.40;27.50;;;;;;5054824;28;20106;-59
2021/03/19 02:48:03;;;;;;;1.38;0.40;;;22.40;27.40;;;;;;5053825;28;20035;-51
2021/03/19 02:50:29;;;;;;;1.05;0.55;;;22.40;27.40;;;;;;5053967;28;20029;-58
2021/03/19 02:52:54;;;;;;;0.65;0.40;;;22.40;27.40;;;;;;5054633;28;20340;-60
2021/03/19 02:55:20;;;;;;;1.08;0.50;;;22.40;27.50;;;;;;5054412;28;20098;-59
2021/03/19 02:57:46;;;;;;;0.40;0.40;;;22.40;27.50;;;;;;5054367;28;20030;-59
2021/03/19 03:00:20;;;;;;;0.47;0.40;;;22.40;27.50;;;;;;5054501;28;20033;-58
2021/03/19 03:02:46;;;;;;;0.50;0.30;;;22.40;27.40;;;;;;5053592;28;20460;-59
2021/03/19 03:05:12;;;;;;;0.70;0.40;;;22.40;27.50;;;;;;5054064;28;20323;-59
2021/03/19 03:07:38;;;;;;;0.30;0.30;;;22.30;27.40;;;;;;5054171;28;20035;-59
2021/03/19 03:10:06;;;;;;;0.43;0.30;;;22.30;27.40;;;;;;5035901;28;20041;-59
2021/03/19 03:12:32;;;;;;;0.38;0.35;;;22.30;27.40;;;;;;5054561;28;20090;-58
2021/03/19 03:14:58;;;;;;;0.55;0.30;;;22.40;27.40;;;;;;5036243;28;20491;-59
2021/03/19 03:17:24;;;;;;;0.70;0.40;;;22.30;27.40;;;;;;5036052;28;20110;-57
2021/03/19 03:19:51;;;;;;;0.65;0.32;;;22.30;27.40;;;;;;5054036;28;20076;-60
2021/03/19 03:22:17;;;;;;;0.63;0.40;;;22.30;27.30;;;;;;5053692;28;20466;-60
2021/03/19 03:24:42;;;;;;;0.80;0.40;;;22.30;27.30;;;;;;5035840;28;20060;-59
2021/03/19 03:27:09;;;;;;;0.63;0.43;;;22.30;27.30;;;;;;5053844;28;20360;-58
2021/03/19 03:29:36;;;;;;;0.82;0.40;;;22.30;27.30;;;;;;5054147;28;20095;-59
2021/03/19 03:32:03;;;;;;;0.63;0.22;;;22.30;27.30;;;;;;5036081;28;20060;-60
2021/03/19 03:34:30;;;;;;;0.70;0.28;;;22.30;27.30;;;;;;5035335;28;20030;-61
2021/03/19 03:36:56;;;;;;;0.40;0.20;;;22.30;27.30;;;;;;5053761;28;20437;-61
2021/03/19 03:39:28;;;;;;;0.60;0.40;;;22.30;27.30;;;;;;5035852;28;20029;-60
2021/03/19 03:41:57;;;;;;;0.75;0.43;;;22.20;27.20;;;;;;5052838;28;20032;-59
2021/03/19 03:44:22;;;;;;;1.02;0.60;;;22.30;27.30;;;;;;5054068;28;20033;-60
2021/03/19 03:46:49;;;;;;;0.80;0.30;;;22.20;27.20;;;;;;5052938;28;20328;-58
2021/03/19 03:49:16;;;;;;;0.98;0.40;;;22.20;27.20;;;;;;5057343;28;20459;-59
2021/03/19 03:51:43;;;;;;;0.38;0.20;;;22.20;27.20;;;;;;5057428;28;20102;-59
2021/03/19 03:54:10;;;;;;;0.50;0.30;;;22.20;27.20;;;;;;5040081;28;20123;-58
2021/03/19 03:56:36;;;;;;;0.40;0.30;;;22.20;27.20;;;;;;5056879;28;20040;-59
2021/03/19 03:59:05;;;;;;;1.00;0.40;;;22.20;27.20;;;;;;5057935;28;20049;-58
2021/03/19 04:01:31;;;;;;;0.80;0.57;;;22.20;27.20;;;;;;5057593;28;20108;-59
2021/03/19 04:03:57;;;;;;;0.60;0.30;;;22.20;27.20;;;;;;5039408;28;20051;-60
2021/03/19 04:06:23;;;;;;;0.43;0.30;;;22.20;27.20;;;;;;5057302;28;20452;-59
2021/03/19 04:08:48;;;;;;;0.60;0.32;;;22.20;27.20;;;;;;5057121;28;20033;-58
2021/03/19 04:11:18;;;;;;;0.88;0.40;;;22.10;27.10;;;;;;5057306;28;20029;-60
2021/03/19 04:13:44;;;;;;;1.20;0.35;;;22.20;27.20;;;;;;5056864;28;20056;-58
2021/03/19 04:16:11;;;;;;;0.63;0.40;;;22.20;27.20;;;;;;5057538;28;20025;-58
2021/03/19 04:18:36;;;;;;;1.08;0.30;;;22.10;27.10;;;;;;5040474;28;20448;-53
2021/03/19 04:21:07;;;;;;;0.63;0.50;;;22.10;27.10;;;;;;5059296;28;20043;-58
2021/03/19 04:23:35;;;;;;;0.70;0.40;;;22.10;27.10;;;;;;5059165;28;20475;-53
2021/03/19 04:26:02;;;;;;;0.80;0.40;;;22.10;27.10;;;;;;5059607;28;20047;-54
2021/03/19 04:28:35;;;;;;;1.35;0.50;;;22.10;27.10;;;;;;5060101;28;20037;-57
2021/03/19 04:31:01;;;;;;;1.02;0.35;;;22.10;27.10;;;;;;5041884;28;20037;-52
2021/03/19 04:33:28;;;;;;;0.90;0.40;;;22.10;27.10;;;;;;5061184;28;20029;-55
2021/03/19 04:36:04;;;;;;;0.52;0.40;;;22.10;27.10;;;;;;5057993;28;20029;-58
2021/03/19 04:38:29;;;;;;;0.40;0.40;;;22.10;27.00;;;;;;5057425;28;20029;-59
2021/03/19 04:40:55;;;;;;;0.77;0.40;;;22.10;27.00;;;;;;5056966;28;20429;-58
2021/03/19 04:43:21;;;;;;;0.73;0.40;;;22.00;27.00;;;;;;5057430;28;20384;-60
2021/03/19 04:45:47;;;;;;;0.77;0.50;;;22.10;27.20;;;;;;5056644;28;20041;-58
2021/03/19 04:48:13;;;;;;;1.25;0.50;;;22.10;27.00;;;;;;5056883;28;20367;-59
2021/03/19 04:50:40;;;;;;;0.77;0.43;;;22.00;27.00;;;;;;5057739;28;20328;-54
2021/03/19 04:53:06;;;;;;;0.50;0.30;;;22.00;27.00;;;;;;5059855;28;20033;-57
2021/03/19 04:55:31;;;;;;;0.40;0.30;;;22.00;27.00;;;;;;5059212;28;20040;-58
2021/03/19 04:57:57;;;;;;;0.88;0.50;;;22.00;27.00;;;;;;5059542;28;20043;-57
2021/03/19 05:00:23;;;;;;;0.50;0.30;;;22.00;27.00;;;;;;5039694;28;20025;-53
2021/03/19 05:02:51;;;;;;;1.17;0.50;;;22.00;26.90;;;;;;5059506;28;20099;-55
2021/03/19 05:05:19;;;;;;;0.38;0.30;;;22.00;26.90;;;;;;5058646;28;20029;-60
2021/03/19 05:07:45;;;;;;;0.88;0.45;;;22.00;27.00;;;;;;5038567;28;20095;-57
2021/03/19 05:10:12;;;;;;;1.00;0.50;;;22.00;26.90;;;;;;5056977;28;20432;-60
2021/03/19 05:12:38;;;;;;;1.00;0.47;;;22.00;26.90;;;;;;5056374;28;20456;-60
2021/03/19 05:15:06;;;;;;;0.68;0.47;;;22.00;26.90;;;;;;5038421;28;20052;-57
2021/03/19 05:17:33;;;;;;;0.88;0.38;;;22.00;26.90;;;;;;5056339;28;20033;-57
2021/03/19 05:20:00;;;;;;;0.73;0.30;;;22.00;26.90;;;;;;5056241;28;20032;-57
2021/03/19 05:22:26;;;;;;;0.38;0.30;;;22.00;26.90;;;;;;5056219;28;20056;-58
2021/03/19 05:24:52;;;;;;;1.02;0.50;;;21.90;26.90;;;;;;5055845;28;20329;-60
2021/03/19 05:27:18;;;;;;;1.08;0.40;;;22.00;26.90;;;;;;5056222;28;20028;-54
2021/03/19 05:29:44;;;;;;;0.75;0.28;;;22.00;26.90;;;;;;5056114;28;20028;-59
2021/03/19 05:32:10;;;;;;;0.88;0.28;;;21.90;26.90;;;;;;5056099;28;20056;-59
2021/03/19 05:34:36;;;;;;;1.38;0.43;;;21.90;26.90;;;;;;5038421;28;20047;-60
2021/03/19 05:37:03;;;;;;;1.45;0.60;;;21.90;26.90;;;;;;5055266;28;20033;-61
2021/03/19 05:39:29;;;;;;;0.93;0.40;;;21.90;26.80;;;;;;5055545;28;20043;-59
2021/03/19 05:41:55;;;;;;;0.63;0.45;;;21.90;26.80;;;;;;5056041;28;20082;-59
2021/03/19 05:44:25;;;;;;;0.57;0.38;;;21.90;26.80;;;;;;5055224;28;20032;-59
2021/03/19 05:46:54;;;;;;;0.43;0.30;;;21.90;26.80;;;;;;5055839;28;20037;-59
2021/03/19 05:49:29;;;;;;;0.60;0.40;;;21.90;26.80;;;;;;5055316;28;20074;-59
2021/03/19 05:51:59;;;;;;;0.30;0.30;;;21.90;26.80;;;;;;5037898;28;20032;-60
2021/03/19 05:54:36;;;;;;;0.40;0.20;;;21.90;26.90;;;;;;5037145;28;20047;-58
2021/03/19 05:57:07;;;;;;;0.82;0.50;;;21.90;26.90;;;;;;5055393;28;20166;-60
2021/03/19 05:59:36;;;;;;;0.65;0.47;;;21.90;26.90;;;;;;5054744;28;20068;-59
2021/03/19 06:02:17;;;;;;;1.13;0.50;;;21.80;26.80;;;;;;5055381;28;20029;-59
2021/03/19 06:04:43;;;;;;;0.70;0.47;;;21.90;26.80;;;;;;5054949;28;20107;-59
2021/03/19 06:07:09;;;;;;;0.63;0.30;;;21.80;26.80;;;;;;5055548;28;20422;-58
2021/03/19 06:09:41;;;;;;;0.55;0.30;;;21.80;26.80;;;;;;5036002;28;20036;-59
2021/03/19 06:12:17;;;;;;;0.73;0.50;;;21.80;26.80;;;;;;5053848;28;20040;-58
2021/03/19 06:14:48;;;;;;;1.35;0.70;;;21.80;26.80;;;;;;5054140;28;20059;-58
2021/03/19 06:17:45;;;;;;;0.40;0.40;;;21.80;26.80;;;;;;5054610;28;20028;-58
2021/03/19 06:20:14;;;;;;;1.08;0.45;;;21.70;26.80;;;;;;5048623;28;20053;-59
2021/03/19 06:23:04;;;;;;;1.27;0.60;;;21.80;26.80;;;;;;5054877;28;20112;-56
2021/03/19 06:25:38;;;;;;;0.90;0.47;;;21.80;26.80;;;;;;5055207;28;20067;-59
2021/03/19 06:28:13;;;;;;;1.15;0.55;;;21.80;26.90;;;;;;5054493;28;20437;-58
2021/03/19 06:30:42;;;;;;;1.17;0.38;;;21.70;26.80;;;;;;5052677;28;20029;-58
2021/03/19 06:33:13;;;;;;;0.68;0.40;;;21.70;26.80;;;;;;5055190;28;20061;-57
2021/03/19 06:35:45;;;;;;;0.85;0.50;;;21.80;26.80;;;;;;5054891;28;20033;-55
2021/03/19 06:38:29;;;;;;;0.40;0.40;;;21.70;26.80;;;;;;5055143;28;20035;-59
2021/03/19 06:40:55;;;;;;;1.03;0.60;;;21.70;26.80;;;;;;5054362;28;20025;-57
2021/03/19 06:43:27;;;;;;;0.75;0.40;;;21.70;26.80;;;;;;5054672;28;20032;-55
2021/03/19 06:46:14;;;;;;;0.90;0.40;;;21.70;26.80;;;;;;5035977;28;20021;-58
2021/03/19 06:49:01;;;;;;;0.70;0.40;;;21.70;26.80;;;;;;5052720;28;20041;-60
2021/03/19 06:51:36;;;;;;;0.70;0.40;;;21.70;26.80;;;;;;5054140;28;20057;-59
2021/03/19 06:54:04;;;;;;;1.45;0.45;;;21.70;26.80;;;;;;5054764;28;20025;-59
2021/03/19 06:56:30;;;;;;;0.90;0.40;;;21.70;26.90;;;;;;5054250;28;20039;-59
2021/03/19 06:58:56;;;;;;;0.90;0.40;;;21.70;26.90;;;;;;5020320;28;20025;-60
2021/03/19 07:01:38;;;;;;;1.77;0.50;;;21.70;26.90;;;;;;5054253;28;20463;-58
2021/03/19 07:04:25;;;;;;;1.83;0.40;;;21.70;26.90;;;;;;5054458;28;20024;-60
2021/03/19 07:07:12;;;;;;;0.32;0.30;;;21.70;26.90;;;;;;5053900;28;20344;-60
2021/03/19 07:09:50;;;;;;;1.25;0.40;;;21.70;26.90;;;;;;5054070;28;20378;-59
2021/03/19 07:12:31;;;;;;;1.58;0.60;;;21.70;26.90;;;;;;5054168;28;20044;-58
2021/03/19 07:15:33;;;;;;;0.70;0.52;;;21.70;26.90;;;;;;5032403;28;20491;-60
2021/03/19 07:18:04;;;;;;;0.30;0.20;;;21.70;27.00;;;;;;4981655;28;20505;-57
2021/03/19 07:20:58;;;;;;;0.38;0.30;;;21.70;27.00;;;;;;5033377;28;20465;-60
2021/03/19 07:23:28;;;;;;;0.80;0.50;;;21.70;27.00;;;;;;5033678;28;20029;-60
2021/03/19 07:26:09;;;;;;;0.70;0.50;;;21.60;27.00;;;;;;5034045;28;20041;-60
2021/03/19 07:28:56;;;;;;;0.82;0.40;;;21.70;27.00;;;;;;5030657;28;20026;-56
2021/03/19 07:31:24;;;;;;;0.85;0.45;;;21.70;27.00;;;;;;5025740;28;20116;-61
2021/03/19 07:34:00;;;;;;;0.70;0.30;;;21.60;27.00;;;;;;5033857;28;20088;-60
2021/03/19 07:36:57;;;;;;;0.73;0.40;;;21.60;27.00;;;;;;5033576;28;20104;-60
2021/03/19 07:39:41;;;;;;;1.00;0.40;;;21.70;26.90;;;;;;5032169;28;20029;-57
2021/03/19 07:42:22;;;;;;;0.40;0.40;;;21.60;26.90;;;;;;5030881;28;20056;-58
2021/03/19 07:45:00;;;;;;;1.35;0.50;;;21.60;26.90;;;;;;5027542;28;20037;-57
2021/03/19 07:47:56;;;;;;;1.27;0.60;;;21.60;27.00;;;;;;5032326;28;20022;-58
2021/03/19 07:50:37;;;;;;;0.77;0.43;;;21.70;27.10;;;;;;5033987;28;20029;-56
2021/03/19 07:53:12;;;;;;;0.98;0.35;;;21.70;27.20;;;;;;5033463;28;20041;-60
2021/03/19 07:56:01;;;;;;;1.02;0.45;;;21.80;27.40;;;;;;5033694;28;20063;-59
2021/03/19 07:59:09;;;;;;;0.82;0.40;;;21.90;27.40;;;;;;5032832;28;20033;-57
2021/03/19 08:01:35;;;;;;;1.40;0.60;;;22.00;27.40;;;;;;4972407;28;20092;-56
2021/03/19 08:04:09;;;;;;;1.30;0.40;;;22.00;27.30;;;;;;5017902;28;20041;-56
2021/03/19 08:06:41;;;;;;;1.55;0.50;;;22.10;27.20;;;;;;5032097;28;20072;-57
2021/03/19 08:09:30;;;;;;;0.65;0.25;;;22.20;27.00;;;;;;5032151;28;20372;-60
2021/03/19 08:12:17;;;;;;;0.40;0.30;;;22.30;26.90;;;;;;5033138;28;20053;-60
2021/03/19 08:14:43;;;;;;;0.68;0.40;;;22.40;26.80;;;;;;5045915;28;20063;-59
2021/03/19 08:17:38;;;;;;;1.38;0.30;;;22.50;26.70;;;;;;5053336;28;20029;-58
2021/03/19 08:20:22;;;;;;;0.75;0.32;;;22.60;26.60;;;;;;5053509;28;20131;-59
2021/03/19 08:23:18;;;;;;;0.82;0.43;;;22.60;26.50;;;;;;5035078;28;20025;-59
2021/03/19 08:25:48;;;;;;;0.38;0.25;;;22.70;26.40;;;;;;5046164;28;20025;-56
2021/03/19 08:28:38;;;;;;;0.30;0.30;;;22.80;26.30;;;;;;5053616;28;20057;-55
2021/03/19 08:31:17;;;;;;;0.77;0.20;;;22.80;26.20;;;;;;5053242;28;20045;-52
2021/03/19 08:34:09;;;;;;;1.23;0.30;;;22.90;26.10;;;;;;5048196;28;20036;-56
2021/03/19 08:36:43;;;;;;;0.95;0.30;;;22.90;26.00;;;;;;5057166;28;20057;-60
2021/03/19 08:39:38;;;;;;;0.57;0.30;;;23.00;26.50;;;;;;5056176;28;20028;-56
2021/03/19 08:42:11;;;;;;;0.52;0.28;;;23.00;25.90;;;;;;5056659;28;20136;-56
2021/03/19 08:44:39;;;;;;;0.50;0.30;;;23.10;26.00;;;;;;5043314;28;20112;-53
2021/03/19 08:47:26;;;;;;;1.52;0.40;;;23.10;25.90;;;;;;5056022;28;20086;-54
2021/03/19 08:49:58;;;;;;;0.82;0.30;;;23.10;25.90;;;;;;5056802;28;20387;-56
2021/03/19 08:52:42;;;;;;;0.45;0.30;;;23.20;25.90;;;;;;5056248;28;20044;-56
2021/03/19 08:55:13;;;;;;;0.50;0.30;;;23.20;25.90;;;;;;5055594;28;20037;-60
2021/03/19 08:57:50;;;;;;;0.17;0.10;;;23.20;25.90;;;;;;5055618;28;20033;-54
2021/03/19 09:00:25;;;;;;;0.32;0.20;;;23.20;25.90;;;;;;5052359;28;20040;-56
2021/03/19 09:02:51;;;;;;;0.20;0.20;;;23.20;25.80;;;;;;5030670;28;20060;-59
2021/03/19 09:05:34;;;;;;;0.43;0.20;;;23.20;25.80;;;;;;5055847;28;20025;-58
2021/03/19 09:08:21;;;;;;;0.82;0.30;;;23.30;25.70;;;;;;5055484;28;20049;-54
2021/03/19 09:10:46;;;;;;;0.32;0.20;;;23.20;25.60;;;;;;5050815;28;20082;-57
2021/03/19 09:13:17;;;;;;;0.57;0.30;;;23.20;25.70;;;;;;5037147;28;20029;-57
2021/03/19 09:15:48;;;;;;;0.82;0.30;;;23.20;25.70;;;;;;5055221;28;20063;-57
2021/03/19 09:18:45;;;;;;;0.75;0.20;;;23.20;25.70;;;;;;5044465;28;20048;-60
2021/03/19 09:21:34;;;;;;;0.65;0.30;;;23.20;25.70;;;;;;5050990;28;20016;-57
2021/03/19 09:24:05;;;;;;;0.30;0.30;;;23.20;25.70;;;;;;5054962;28;20067;-58
2021/03/19 09:26:48;;;;;;;0.25;0.20;;;23.20;25.80;;;;;;5054697;28;20120;-59
2021/03/19 09:29:14;;;;;;;0.30;0.20;;;23.20;25.80;;;;;;5056243;28;20112;-56
2021/03/19 09:31:46;;;;;;;0.50;0.30;;;23.20;25.90;;;;;;5055508;28;20450;-59
2021/03/19 09:34:30;;;;;;;0.45;0.30;;;23.20;25.90;;;;;;5056186;28;20063;-57
2021/03/19 09:36:58;;;;;;;0.50;0.28;;;23.20;25.90;;;;;;5056165;28;20036;-57
2021/03/19 09:39:49;;;;;;;0.60;0.30;;;23.20;26.00;;;;;;5037535;28;20102;-58
2021/03/19 09:42:21;;;;;;;2.17;0.50;;;23.10;25.90;;;;;;5055492;28;20033;-58
2021/03/19 09:45:10;;;;;;;1.52;0.50;;;23.20;26.00;;;;;;5055093;28;20348;-59
2021/03/19 09:47:39;;;;;;;0.60;0.40;;;23.10;26.10;;;;;;5054283;28;20067;-58
2021/03/19 09:50:26;;;;;;;0.80;0.40;;;23.10;26.10;;;;;;5055626;28;20048;-57
2021/03/19 09:53:06;;;;;;;0.45;0.30;;;23.10;26.20;;;;;;5037510;28;20064;-57
2021/03/19 09:55:40;;;;;;;1.42;0.50;;;23.10;26.20;;;;;;5037539;28;20063;-58
2021/03/19 09:58:35;;;;;;;0.75;0.38;;;23.10;26.20;;;;;;5055199;28;20032;-54
2021/03/19 10:01:09;;;;;;;1.10;0.30;;;23.10;26.20;;;;;;5055431;28;20105;-57
2021/03/19 10:04:13;;;;;;;0.50;0.40;;;23.10;26.30;;;;;;5053685;28;20064;-55
2021/03/19 10:06:44;;;;;;;0.65;0.40;;;23.10;26.30;;;;;;5041432;28;20056;-54
2021/03/19 10:09:18;;;;;;;0.75;0.40;;;23.10;26.30;;;;;;5052095;28;20496;-57
2021/03/19 10:11:56;;;;;;;0.70;0.40;;;23.10;26.30;;;;;;5055036;28;20045;-58
2021/03/19 10:14:45;;;;;;;0.43;0.38;;;23.20;26.40;;;;;;5053868;28;20397;-56
2021/03/19 10:17:30;;;;;;;1.15;0.43;;;23.20;26.30;;;;;;5054296;28;20029;-58
2021/03/19 10:20:16;;;;;;;0.43;0.40;;;23.20;26.30;;;;;;5045013;28;20463;-57
2021/03/19 10:22:43;;;;;;;0.65;0.40;;;23.20;26.30;;;;;;5054778;28;20086;-58
2021/03/19 10:25:25;;;;;;;0.30;0.30;;;23.20;26.40;;;;;;5054883;28;20036;-56
2021/03/19 10:28:13;;;;;;;0.47;0.30;;;23.20;26.40;;;;;;5054433;28;20448;-58
2021/03/19 10:30:46;;;;;;;0.88;0.30;;;23.20;26.50;;;;;;5049774;28;20103;-57
2021/03/19 10:33:19;;;;;;;0.32;0.30;;;23.30;26.60;;;;;;5055077;28;20051;-58
2021/03/19 10:36:18;;;;;;;0.43;0.30;;;23.30;26.50;;;;;;5051886;28;20039;-53
2021/03/19 10:39:01;;;;;;;0.47;0.40;;;23.30;26.50;;;;;;5038284;28;20120;-54
2021/03/19 10:41:45;;;;;;;0.60;0.38;;;23.30;26.50;;;;;;5051805;28;20047;-55
2021/03/19 10:44:30;;;;;;;0.25;0.25;;;23.30;26.50;;;;;;5034626;28;20032;-55
2021/03/19 10:47:11;;;;;;;1.15;0.40;;;23.30;26.50;;;;;;5053213;28;20021;-51
2021/03/19 10:49:46;;;;;;;1.35;0.50;;;23.30;26.50;;;;;;5050392;28;20174;-54
2021/03/19 10:52:30;;;;;;;0.85;0.60;;;23.20;26.60;;;;;;5049703;28;20402;-51
2021/03/19 10:55:02;;;;;;;0.88;0.60;;;23.30;26.60;;;;;;5053122;28;20044;-52
2021/03/19 10:57:30;;;;;;;0.80;0.55;;;23.20;26.60;;;;;;5050114;28;20036;-51
2021/03/19 10:59:58;;;;;;;1.02;0.52;;;23.20;26.60;;;;;;5052342;28;20036;-52
2021/03/19 11:02:30;;;;;;;0.82;0.40;;;23.20;26.60;;;;;;5052188;28;20021;-56
2021/03/19 11:04:59;;;;;;;0.63;0.50;;;23.10;26.50;;;;;;5052646;28;20033;-56
2021/03/19 11:07:25;;;;;;;0.50;0.40;;;23.20;26.50;;;;;;5034140;28;20036;-50
2021/03/19 11:10:28;;;;;;;0.35;0.30;;;23.20;26.60;;;;;;5052109;28;20055;-54
2021/03/19 11:13:16;;;;;;;0.40;0.38;;;23.20;26.50;;;;;;5049991;28;20048;-55
2021/03/19 11:15:47;;;;;;;1.05;0.40;;;23.10;26.60;;;;;;5051867;28;20041;-56
2021/03/19 11:18:19;;;;;;;0.30;0.30;;;23.10;26.60;;;;;;5047379;28;20376;-52
2021/03/19 11:20:56;;;;;;;0.85;0.40;;;23.00;26.60;;;;;;5050936;28;20452;-54
2021/03/19 11:23:24;;;;;;;0.60;0.40;;;23.00;26.60;;;;;;5051120;28;20059;-52
2021/03/19 11:25:52;;;;;;;0.55;0.40;;;23.00;26.70;;;;;;5050389;28;20447;-50
2021/03/19 11:28:27;;;;;;;0.68;0.40;;;23.00;26.70;;;;;;5050271;28;20060;-50
2021/03/19 11:30:53;;;;;;;0.40;0.22;;;22.90;26.70;;;;;;5049179;28;20021;-52
2021/03/19 11:33:20;;;;;;;0.57;0.38;;;23.00;26.70;;;;;;5047246;28;20033;-53
2021/03/19 11:36:09;;;;;;;0.63;0.40;;;22.90;26.70;;;;;;5046295;28;20422;-49
2021/03/19 11:38:40;;;;;;;0.68;0.40;;;22.90;26.70;;;;;;5048988;28;20029;-53
2021/03/19 11:41:31;;;;;;;0.82;0.40;;;22.90;26.70;;;;;;5049686;28;20029;-53
2021/03/19 11:43:58;;;;;;;1.10;0.40;;;22.90;26.70;;;;;;5048987;28;20041;-52
2021/03/19 11:46:26;;;;;;;0.40;0.30;;;22.90;26.70;;;;;;5047861;28;20086;-57
2021/03/19 11:48:51;;;;;;;0.77;0.40;;;22.90;26.80;;;;;;5047914;28;20127;-54
2021/03/19 11:51:20;;;;;;;0.98;0.35;;;22.90;26.80;;;;;;5048964;28;20692;-53
2021/03/19 11:53:46;;;;;;;1.05;0.52;;;22.90;26.80;;;;;;5049102;28;20091;-55
2021/03/19 11:56:13;;;;;;;1.25;0.57;;;22.90;26.70;;;;;;5045833;28;20024;-52
2021/03/19 11:58:39;;;;;;;1.50;0.70;;;22.90;26.70;;;;;;5049034;28;20037;-54
2021/03/19 12:01:07;;;;;;;1.88;0.60;;;22.90;26.70;;;;;;5044947;28;20095;-55
2021/03/19 12:03:40;;;;;;;1.48;0.70;;;22.90;26.70;;;;;;5048820;28;20017;-51
2021/03/19 12:06:08;;;;;;;1.80;0.60;;;22.90;27.20;;;;;;5045321;28;20035;-54
2021/03/19 12:08:36;;;;;;;1.25;0.50;;;22.90;26.60;;;;;;5048854;28;20061;-54
2021/03/19 12:11:04;;;;;;;1.02;0.50;;;22.90;26.50;;;;;;5049450;28;20164;-48
2021/03/19 12:13:30;;;;;;;1.33;0.50;;;22.90;26.40;;;;;;5053296;28;20096;-50
2021/03/19 12:15:56;;;;;;;1.25;0.50;;;22.90;26.40;;;;;;5048817;28;20032;-51
2021/03/19 12:18:25;;;;;;;1.58;0.50;;;22.90;26.30;;;;;;5051284;28;20021;-53
2021/03/19 12:20:51;;;;;;;1.45;0.52;;;23.00;26.30;;;;;;5049792;28;20060;-47
2021/03/19 12:23:17;;;;;;;1.15;0.50;;;23.00;26.30;;;;;;5053997;28;20025;-54
2021/03/19 12:25:43;;;;;;;1.63;0.70;;;23.00;26.30;;;;;;5022099;28;20095;-57
2021/03/19 12:28:12;;;;;;;0.82;0.40;;;23.10;26.20;;;;;;5053304;28;20029;-52
2021/03/19 12:30:38;;;;;;;2.17;0.60;;;23.10;26.10;;;;;;5050300;28;20029;-52
2021/03/19 12:33:05;;;;;;;1.40;0.63;;;23.10;26.20;;;;;;5056813;28;20103;-53
2021/03/19 12:35:31;;;;;;;0.60;0.20;;;23.00;26.10;;;;;;5055738;28;20116;-51
2021/03/19 12:37:58;;;;;;;1.55;0.28;;;23.10;26.20;;;;;;5056967;28;20113;-54
2021/03/19 12:40:26;;;;;;;0.90;0.40;;;23.10;26.20;;;;;;5054304;28;20036;-57
2021/03/19 12:42:52;;;;;;;2.83;0.50;;;23.10;26.30;;;;;;5052014;28;20034;-55
2021/03/19 12:45:23;;;;;;;0.38;0.30;;;23.10;26.50;;;;;;5054579;28;20031;-54
2021/03/19 12:47:49;;;;;;;1.85;0.30;;;23.10;26.80;;;;;;5053654;28;20033;-50
2021/03/19 12:50:15;;;;;;;0.35;0.30;;;23.10;27.10;;;;;;5054778;28;20060;-52
2021/03/19 12:52:40;;;;;;;0.88;0.40;;;23.10;27.30;;;;;;5055683;28;20059;-52
2021/03/19 12:55:07;;;;;;;0.47;0.30;;;23.10;27.60;;;;;;5051742;28;20029;-56
2021/03/19 12:57:33;;;;;;;0.30;0.20;;;23.20;27.80;;;;;;5054030;28;20488;-55
2021/03/19 12:59:59;;;;;;;0.52;0.30;;;23.20;27.90;;;;;;5036216;28;20119;-53
2021/03/19 13:02:24;;;;;;;0.40;0.20;;;23.30;28.10;;;;;;5056378;28;20029;-53
2021/03/19 13:04:50;;;;;;;0.75;0.32;;;23.30;28.20;;;;;;5054985;28;20054;-52
2021/03/19 13:07:16;;;;;;;0.30;0.30;;;23.40;28.30;;;;;;5056192;28;20025;-49
2021/03/19 13:09:42;;;;;;;0.60;0.20;;;23.40;28.30;;;;;;5054796;28;20040;-57
2021/03/19 13:12:08;;;;;;;0.65;0.30;;;23.50;28.40;;;;;;5049715;28;20087;-50
2021/03/19 13:14:34;;;;;;;0.50;0.32;;;23.50;28.40;;;;;;5051213;28;20065;-57
2021/03/19 13:17:01;;;;;;;0.30;0.20;;;23.60;28.30;;;;;;5051362;28;20079;-50
2021/03/19 13:19:27;;;;;;;0.50;0.30;;;23.60;28.20;;;;;;5032410;28;20045;-55
2021/03/19 13:21:54;;;;;;;0.70;0.40;;;23.70;28.00;;;;;;5047568;28;20367;-53